Time;durP1;ratioP1;P1;durP2;ratioP2;P2;SDS_P1;SDS_P2;PMS_P1;PMS_P2;Temp;Humidity;BMP_temperature;BMP_pressure;BME280_temperature;BME280_humidity;BME280_pressure;Samples;Min_cycle;Max_cycle;Signal;HPM_P1;HPM_P2
2021/09/01 00:02:19;;;;;;;13.90;4.60;;;17.40;99.90;;;;;;5027794;28;20030;-35
2021/09/01 00:04:45;;;;;;;12.85;3.33;;;17.30;99.90;;;;;;5027759;28;20040;-37
2021/09/01 00:07:10;;;;;;;12.50;3.72;;;17.30;99.90;;;;;;5028390;28;20025;-37
2021/09/01 00:09:37;;;;;;;12.88;3.75;;;17.30;99.90;;;;;;5027185;28;20041;-37
2021/09/01 00:12:04;;;;;;;10.02;3.15;;;17.30;99.90;;;;;;5028276;28;20025;-38
2021/09/01 00:14:29;;;;;;;14.60;3.47;;;17.30;99.90;;;;;;5028209;28;20024;-39
2021/09/01 00:16:55;;;;;;;9.98;3.50;;;17.20;99.90;;;;;;5027818;28;20025;-38
2021/09/01 00:19:20;;;;;;;8.68;2.80;;;17.30;99.90;;;;;;5031924;28;20068;-37
2021/09/01 00:21:49;;;;;;;11.25;3.60;;;17.20;99.90;;;;;;5030809;28;20125;-35
2021/09/01 00:24:15;;;;;;;8.65;3.35;;;17.30;99.90;;;;;;5030994;28;20033;-39
2021/09/01 00:26:42;;;;;;;10.90;3.60;;;17.30;99.90;;;;;;5030990;28;20030;-36
2021/09/01 00:29:10;;;;;;;17.05;3.63;;;17.20;99.90;;;;;;5029761;28;20030;-37
2021/09/01 00:31:37;;;;;;;11.02;3.65;;;17.20;99.90;;;;;;5031400;28;20099;-39
2021/09/01 00:34:03;;;;;;;6.60;2.88;;;17.20;99.90;;;;;;5031136;28;20018;-39
2021/09/01 00:36:28;;;;;;;10.45;3.53;;;17.20;99.90;;;;;;5030876;28;20453;-39
2021/09/01 00:38:54;;;;;;;7.55;3.00;;;17.20;99.90;;;;;;5030885;28;20044;-36
2021/09/01 00:41:28;;;;;;;10.43;3.40;;;17.20;99.90;;;;;;5031204;28;20040;-39
2021/09/01 00:44:22;;;;;;;5.85;2.97;;;17.20;99.90;;;;;;5030058;28;20043;-36
2021/09/01 00:46:50;;;;;;;9.00;2.65;;;17.20;99.90;;;;;;5025345;28;20053;-37
2021/09/01 00:49:16;;;;;;;9.95;2.80;;;17.30;99.90;;;;;;5031524;28;20033;-38
2021/09/01 00:51:46;;;;;;;9.45;3.53;;;17.30;99.90;;;;;;5029781;28;20067;-36
2021/09/01 00:54:15;;;;;;;11.35;3.55;;;17.30;99.90;;;;;;5030867;28;20304;-36
2021/09/01 00:56:44;;;;;;;6.53;2.72;;;17.30;99.90;;;;;;5030273;28;20080;-35
2021/09/01 00:59:13;;;;;;;7.40;2.97;;;17.20;99.90;;;;;;5030026;28;20076;-39
2021/09/01 01:01:39;;;;;;;10.65;3.63;;;17.30;99.90;;;;;;5029906;28;20029;-37
2021/09/01 01:04:04;;;;;;;10.95;3.63;;;17.30;99.90;;;;;;5030540;28;20416;-41
2021/09/01 01:06:30;;;;;;;14.43;3.42;;;17.20;99.90;;;;;;5029741;28;20029;-39
2021/09/01 01:09:08;;;;;;;8.02;2.80;;;17.30;99.90;;;;;;5029590;28;20522;-38
2021/09/01 01:11:34;;;;;;;9.80;2.92;;;17.30;99.90;;;;;;5029548;28;20024;-37
2021/09/01 01:14:00;;;;;;;8.93;2.90;;;17.30;99.90;;;;;;5029863;28;20025;-36
2021/09/01 01:16:30;;;;;;;10.60;3.10;;;17.20;99.90;;;;;;5029701;28;20511;-38
2021/09/01 01:18:59;;;;;;;12.38;3.40;;;17.30;99.90;;;;;;5028827;28;20030;-37
2021/09/01 01:21:27;;;;;;;7.50;3.00;;;17.30;99.90;;;;;;5030244;28;20040;-40
2021/09/01 01:23:53;;;;;;;6.15;2.83;;;17.30;99.90;;;;;;5030029;28;20057;-36
2021/09/01 01:26:19;;;;;;;7.93;2.83;;;17.30;99.90;;;;;;5029644;28;20440;-37
2021/09/01 01:29:11;;;;;;;8.02;2.90;;;17.30;99.90;;;;;;5029425;28;20100;-39
2021/09/01 01:31:38;;;;;;;6.53;2.83;;;17.30;99.90;;;;;;5027633;28;20041;-36
2021/09/01 01:34:10;;;;;;;9.55;3.13;;;17.30;99.90;;;;;;5029420;28;20041;-37
2021/09/01 01:36:45;;;;;;;9.23;3.17;;;17.20;99.90;;;;;;5029798;28;20021;-38
2021/09/01 01:39:16;;;;;;;5.88;2.58;;;17.20;99.90;;;;;;5029990;28;20048;-37
2021/09/01 01:41:42;;;;;;;7.67;2.40;;;17.20;99.90;;;;;;5029326;28;20283;-35
2021/09/01 01:44:07;;;;;;;7.95;3.00;;;17.20;99.90;;;;;;5029277;28;20619;-37
2021/09/01 01:46:33;;;;;;;9.23;2.47;;;17.20;99.90;;;;;;5029410;28;20061;-36
2021/09/01 01:48:58;;;;;;;7.90;2.75;;;17.20;99.90;;;;;;5029852;28;20026;-39
2021/09/01 01:51:24;;;;;;;9.68;2.83;;;17.20;99.90;;;;;;5030028;28;20109;-37
2021/09/01 01:53:49;;;;;;;6.53;2.80;;;17.20;99.90;;;;;;5029098;28;20381;-35
2021/09/01 01:56:15;;;;;;;6.40;2.72;;;17.30;99.90;;;;;;5030113;28;20104;-37
2021/09/01 01:58:43;;;;;;;7.57;2.83;;;17.20;99.90;;;;;;5029148;28;20473;-39
2021/09/01 02:01:11;;;;;;;6.35;2.78;;;17.30;99.90;;;;;;5028992;28;20022;-34
2021/09/01 02:03:37;;;;;;;8.18;2.70;;;17.20;99.90;;;;;;5029717;28;20038;-37
2021/09/01 02:06:02;;;;;;;7.22;3.13;;;17.20;99.90;;;;;;5028973;28;20541;-36
2021/09/01 02:08:28;;;;;;;4.55;2.22;;;17.30;99.90;;;;;;5028943;28;20045;-38
2021/09/01 02:10:56;;;;;;;9.85;3.63;;;17.30;99.90;;;;;;5029458;28;20084;-39
2021/09/01 02:13:22;;;;;;;7.95;3.40;;;17.30;99.90;;;;;;5029554;28;20108;-40
2021/09/01 02:15:47;;;;;;;7.18;2.70;;;17.20;99.90;;;;;;5028699;28;20109;-39
2021/09/01 02:18:13;;;;;;;6.45;2.80;;;17.30;99.90;;;;;;5029735;28;20027;-39
2021/09/01 02:20:38;;;;;;;9.45;3.33;;;17.20;99.90;;;;;;5028333;28;20420;-34
2021/09/01 02:23:07;;;;;;;8.07;2.90;;;17.20;99.90;;;;;;5028478;28;20014;-37
2021/09/01 02:25:33;;;;;;;7.95;2.80;;;17.20;99.90;;;;;;5029041;28;20040;-36
2021/09/01 02:27:58;;;;;;;5.65;2.72;;;17.20;99.90;;;;;;5028557;28;20022;-37
2021/09/01 02:30:36;;;;;;;8.52;2.67;;;17.20;99.90;;;;;;5028652;28;20024;-38
2021/09/01 02:33:02;;;;;;;8.63;3.38;;;17.20;99.90;;;;;;5028572;28;20674;-34
2021/09/01 02:35:27;;;;;;;4.82;2.47;;;17.20;99.90;;;;;;5029040;28;20490;-39
2021/09/01 02:37:53;;;;;;;8.23;2.60;;;17.20;99.90;;;;;;5028083;28;20021;-39
2021/09/01 02:40:22;;;;;;;3.72;2.25;;;17.20;99.90;;;;;;5028401;28;20516;-38
2021/09/01 02:42:51;;;;;;;9.00;3.15;;;17.20;99.90;;;;;;5028020;28;20021;-38
2021/09/01 02:45:17;;;;;;;9.20;3.20;;;17.20;99.90;;;;;;5028273;28;20099;-36
2021/09/01 02:47:45;;;;;;;11.80;3.80;;;17.10;99.90;;;;;;5028537;28;20535;-38
2021/09/01 02:50:20;;;;;;;9.75;3.40;;;17.10;99.90;;;;;;5028539;28;20048;-38
2021/09/01 02:52:46;;;;;;;12.40;3.72;;;17.10;99.90;;;;;;5028287;28;20022;-35
2021/09/01 02:55:12;;;;;;;10.43;3.60;;;17.10;99.90;;;;;;5028375;28;20039;-38
2021/09/01 02:57:38;;;;;;;5.60;2.90;;;17.10;99.90;;;;;;5028300;28;20104;-37
2021/09/01 03:00:05;;;;;;;7.57;3.08;;;17.10;99.90;;;;;;5028409;28;20431;-38
2021/09/01 03:02:30;;;;;;;8.77;3.13;;;17.10;99.90;;;;;;5028913;28;20057;-35
2021/09/01 03:04:56;;;;;;;11.65;3.10;;;17.10;99.90;;;;;;5028261;28;21046;-39
2021/09/01 03:07:21;;;;;;;8.32;3.40;;;17.10;99.90;;;;;;5028407;28;20576;-39
2021/09/01 03:09:47;;;;;;;6.05;3.10;;;17.10;99.90;;;;;;5027725;28;20037;-39
2021/09/01 03:12:15;;;;;;;10.73;3.75;;;17.00;99.90;;;;;;5028340;28;20021;-35
2021/09/01 03:14:47;;;;;;;10.30;3.47;;;17.10;99.90;;;;;;5028007;28;20017;-39
2021/09/01 03:17:12;;;;;;;7.95;3.15;;;17.10;99.90;;;;;;5028168;28;20457;-35
2021/09/01 03:19:38;;;;;;;6.70;3.00;;;17.10;99.90;;;;;;5027376;28;20083;-39
2021/09/01 03:22:06;;;;;;;7.28;3.30;;;17.10;99.90;;;;;;5028447;28;20104;-39
2021/09/01 03:24:31;;;;;;;7.28;2.90;;;17.10;99.90;;;;;;5028148;28;20049;-38
2021/09/01 03:26:57;;;;;;;9.15;3.45;;;17.10;99.90;;;;;;5027347;28;20037;-38
2021/09/01 03:29:22;;;;;;;10.75;3.58;;;17.10;99.90;;;;;;5028359;28;20112;-38
2021/09/01 03:31:48;;;;;;;10.48;3.20;;;17.00;99.90;;;;;;5027327;28;20052;-38
2021/09/01 03:34:14;;;;;;;11.38;3.40;;;17.00;99.90;;;;;;5028020;28;20029;-37
2021/09/01 03:36:39;;;;;;;7.15;3.30;;;17.00;99.90;;;;;;5028261;28;20021;-36
2021/09/01 03:39:05;;;;;;;5.90;3.50;;;17.00;99.90;;;;;;5028797;28;20041;-38
2021/09/01 03:41:32;;;;;;;8.35;3.25;;;17.00;99.90;;;;;;5028315;28;20021;-37
2021/09/01 03:43:58;;;;;;;8.25;3.25;;;17.00;99.90;;;;;;5027743;28;20041;-37
2021/09/01 03:46:23;;;;;;;8.43;3.08;;;17.00;99.90;;;;;;5028575;28;20425;-35
2021/09/01 03:48:49;;;;;;;7.63;2.95;;;17.00;99.90;;;;;;5028477;28;20025;-37
2021/09/01 03:51:14;;;;;;;8.18;3.15;;;17.00;99.90;;;;;;5028708;28;20045;-39
2021/09/01 03:53:46;;;;;;;9.15;3.50;;;17.00;99.90;;;;;;5031365;28;20350;-36
2021/09/01 03:56:11;;;;;;;12.18;3.83;;;17.00;99.90;;;;;;5032050;28;20071;-38
2021/09/01 03:58:37;;;;;;;7.35;3.33;;;17.00;99.90;;;;;;5032062;28;20443;-36
2021/09/01 04:01:02;;;;;;;7.60;2.90;;;17.00;99.90;;;;;;5031077;28;20044;-37
2021/09/01 04:03:28;;;;;;;7.32;3.15;;;17.00;99.90;;;;;;5032756;28;20046;-37
2021/09/01 04:05:53;;;;;;;9.52;3.38;;;17.00;99.90;;;;;;5031871;28;20428;-34
2021/09/01 04:08:19;;;;;;;8.32;3.03;;;16.90;99.80;;;;;;5031169;28;20021;-35
2021/09/01 04:10:47;;;;;;;7.38;3.50;;;17.00;99.90;;;;;;5032416;28;20061;-31
2021/09/01 04:13:15;;;;;;;11.23;3.45;;;17.00;99.90;;;;;;5031863;28;20055;-31
2021/09/01 04:15:41;;;;;;;7.13;2.85;;;16.90;99.80;;;;;;5031522;28;20096;-37
2021/09/01 04:18:06;;;;;;;11.85;3.55;;;16.90;99.90;;;;;;5032108;28;20516;-36
2021/09/01 04:20:34;;;;;;;9.35;3.10;;;16.90;99.60;;;;;;5031708;28;20028;-38
2021/09/01 04:23:01;;;;;;;6.70;2.85;;;16.90;99.70;;;;;;5030757;28;20465;-38
2021/09/01 04:25:26;;;;;;;9.48;2.90;;;16.90;99.70;;;;;;5031702;28;20467;-39
2021/09/01 04:27:52;;;;;;;5.68;2.97;;;16.90;99.70;;;;;;5031302;28;20022;-36
2021/09/01 04:30:17;;;;;;;6.97;2.70;;;16.90;99.70;;;;;;5031575;28;20484;-39
2021/09/01 04:32:43;;;;;;;7.72;2.72;;;16.90;99.80;;;;;;5031338;28;20385;-37
2021/09/01 04:35:11;;;;;;;10.52;3.15;;;16.90;99.80;;;;;;5031777;28;20396;-38
2021/09/01 04:37:37;;;;;;;8.75;3.15;;;16.90;99.80;;;;;;5030907;28;20465;-35
2021/09/01 04:40:06;;;;;;;5.57;2.85;;;16.90;99.70;;;;;;5031272;28;20049;-38
2021/09/01 04:42:31;;;;;;;8.07;3.28;;;16.90;99.70;;;;;;5031243;28;20022;-38
2021/09/01 04:44:57;;;;;;;7.35;2.88;;;17.00;99.70;;;;;;5030657;28;20064;-38
2021/09/01 04:47:22;;;;;;;7.93;2.50;;;16.90;99.60;;;;;;5031243;28;20025;-36
2021/09/01 04:49:50;;;;;;;9.10;3.28;;;17.00;99.60;;;;;;5031016;28;20028;-36
2021/09/01 04:52:16;;;;;;;8.55;2.67;;;16.90;99.50;;;;;;5031180;28;20022;-37
2021/09/01 04:54:44;;;;;;;6.55;2.85;;;16.90;99.60;;;;;;5030852;28;20060;-37
2021/09/01 04:57:10;;;;;;;7.60;2.78;;;16.90;99.60;;;;;;5030496;28;20026;-36
2021/09/01 04:59:35;;;;;;;7.10;2.50;;;17.00;99.60;;;;;;5031749;28;20032;-38
2021/09/01 05:02:03;;;;;;;7.75;3.17;;;16.90;99.60;;;;;;5030626;28;20030;-37
2021/09/01 05:04:29;;;;;;;5.35;2.72;;;17.00;99.70;;;;;;5030496;28;20017;-37
2021/09/01 05:06:57;;;;;;;10.15;2.75;;;17.00;99.70;;;;;;5030853;28;20472;-35
2021/09/01 05:09:23;;;;;;;8.07;3.20;;;17.00;99.70;;;;;;5030285;28;20014;-36
2021/09/01 05:11:48;;;;;;;7.35;2.40;;;17.00;99.60;;;;;;5030403;28;20048;-39
2021/09/01 05:14:14;;;;;;;7.13;2.63;;;17.00;99.60;;;;;;5030915;28;20108;-37
2021/09/01 05:16:39;;;;;;;4.90;2.22;;;17.00;99.60;;;;;;5031013;28;20018;-39
2021/09/01 05:19:09;;;;;;;5.75;2.65;;;17.00;99.60;;;;;;5030151;28;20795;-39
2021/09/01 05:21:46;;;;;;;6.07;2.70;;;17.00;99.60;;;;;;5031247;28;20024;-37
2021/09/01 05:24:22;;;;;;;6.60;2.45;;;17.00;99.60;;;;;;5031252;28;20049;-38
2021/09/01 05:26:49;;;;;;;7.10;2.58;;;17.00;99.60;;;;;;5029917;28;20056;-39
2021/09/01 05:29:23;;;;;;;5.07;2.45;;;17.00;99.50;;;;;;5030699;28;20445;-35
2021/09/01 05:31:52;;;;;;;6.53;2.85;;;17.00;99.60;;;;;;5018943;28;20065;-37
2021/09/01 05:34:25;;;;;;;6.05;2.67;;;17.00;99.50;;;;;;5029793;28;20017;-35
2021/09/01 05:36:52;;;;;;;5.72;2.33;;;16.90;99.60;;;;;;5030281;28;20032;-39
2021/09/01 05:39:19;;;;;;;5.72;2.30;;;16.90;99.50;;;;;;5030153;28;20034;-38
2021/09/01 05:41:45;;;;;;;5.05;2.33;;;16.90;99.50;;;;;;5030295;28;20045;-37
2021/09/01 05:44:12;;;;;;;6.60;2.58;;;16.90;99.50;;;;;;5030990;28;20030;-36
2021/09/01 05:46:37;;;;;;;8.38;3.00;;;16.90;99.80;;;;;;5029197;28;20485;-36
2021/09/01 05:49:06;;;;;;;6.60;2.83;;;17.00;99.50;;;;;;5030581;28;20087;-36
2021/09/01 05:51:31;;;;;;;5.45;2.50;;;17.00;99.40;;;;;;5034483;28;20031;-38
2021/09/01 05:53:57;;;;;;;10.23;2.70;;;17.10;99.40;;;;;;5029315;28;20025;-38
2021/09/01 05:56:29;;;;;;;9.60;2.83;;;17.10;99.30;;;;;;5029577;28;20096;-37
2021/09/01 05:59:08;;;;;;;6.90;2.42;;;17.10;99.20;;;;;;5029166;28;20033;-38
2021/09/01 06:01:39;;;;;;;7.15;2.65;;;17.10;99.30;;;;;;5029590;28;20420;-37
2021/09/01 06:04:08;;;;;;;6.07;2.75;;;17.10;99.30;;;;;;5026657;28;20527;-37
2021/09/01 06:06:38;;;;;;;7.03;2.45;;;17.10;99.20;;;;;;5028878;28;20065;-38
2021/09/01 06:09:06;;;;;;;6.75;2.65;;;17.10;99.20;;;;;;5028680;28;20014;-36
2021/09/01 06:11:34;;;;;;;5.22;2.53;;;17.10;99.30;;;;;;5031628;28;20542;-35
2021/09/01 06:13:59;;;;;;;6.72;2.63;;;17.20;99.30;;;;;;5027229;28;20244;-38
2021/09/01 06:16:28;;;;;;;5.35;2.38;;;17.10;99.30;;;;;;5028483;28;20022;-34
2021/09/01 06:18:53;;;;;;;5.97;2.55;;;17.20;99.20;;;;;;5026305;28;20025;-36
2021/09/01 06:21:19;;;;;;;7.50;2.55;;;17.20;99.10;;;;;;5028272;28;20461;-39
2021/09/01 06:23:45;;;;;;;6.22;2.50;;;17.20;99.20;;;;;;5027431;28;20037;-36
2021/09/01 06:26:11;;;;;;;3.88;2.05;;;17.20;99.30;;;;;;5028386;28;20523;-34
2021/09/01 06:28:37;;;;;;;6.78;2.55;;;17.30;99.30;;;;;;5028086;28;20026;-37
2021/09/01 06:31:03;;;;;;;5.65;2.42;;;17.30;99.30;;;;;;5028119;28;20021;-38
2021/09/01 06:33:29;;;;;;;6.00;2.40;;;17.30;99.20;;;;;;5029687;28;20760;-38
2021/09/01 06:35:58;;;;;;;6.78;2.28;;;17.30;99.30;;;;;;5030187;28;20389;-40
2021/09/01 06:38:23;;;;;;;5.00;2.13;;;17.30;99.30;;;;;;5028707;28;20030;-37
2021/09/01 06:40:49;;;;;;;5.30;2.10;;;17.30;99.40;;;;;;5028499;28;20078;-39
2021/09/01 06:43:14;;;;;;;6.13;2.13;;;17.30;99.30;;;;;;5028550;28;20068;-36
2021/09/01 06:45:41;;;;;;;4.95;2.10;;;17.40;99.40;;;;;;5028901;28;20107;-37
2021/09/01 06:48:09;;;;;;;6.53;2.22;;;17.40;99.40;;;;;;5028513;28;20059;-35
2021/09/01 06:50:34;;;;;;;4.03;2.15;;;17.50;99.30;;;;;;5028802;28;20037;-38
2021/09/01 06:52:59;;;;;;;6.15;2.90;;;17.50;99.20;;;;;;5029166;28;20033;-39
2021/09/01 06:55:25;;;;;;;6.50;2.63;;;17.50;99.10;;;;;;5029485;28;20030;-39
2021/09/01 06:57:51;;;;;;;7.18;2.70;;;17.50;99.10;;;;;;5027789;28;20010;-38
2021/09/01 07:00:19;;;;;;;6.63;2.85;;;17.50;99.10;;;;;;5039016;28;20134;-38
2021/09/01 07:02:51;;;;;;;4.80;2.10;;;17.60;99.10;;;;;;5041381;28;20080;-36
2021/09/01 07:05:18;;;;;;;5.47;2.87;;;17.60;99.10;;;;;;5028067;28;20060;-36
2021/09/01 07:07:48;;;;;;;7.32;2.80;;;17.70;98.70;;;;;;5028317;28;20072;-38
2021/09/01 07:10:14;;;;;;;5.85;2.80;;;17.60;98.70;;;;;;5028742;28;20036;-35
2021/09/01 07:12:42;;;;;;;8.57;2.85;;;17.60;98.90;;;;;;5028796;28;20021;-35
2021/09/01 07:15:09;;;;;;;6.00;2.50;;;17.60;99.00;;;;;;5029034;28;20029;-34
2021/09/01 07:17:36;;;;;;;6.75;2.40;;;17.60;99.00;;;;;;5028468;28;20025;-36
2021/09/01 07:20:02;;;;;;;4.75;2.25;;;17.70;99.00;;;;;;5028837;28;20026;-36
2021/09/01 07:22:27;;;;;;;5.38;2.38;;;17.70;99.00;;;;;;5031738;28;20033;-39
2021/09/01 07:24:56;;;;;;;6.90;2.40;;;17.80;98.90;;;;;;5027081;28;20073;-38
2021/09/01 07:27:22;;;;;;;5.25;2.95;;;17.90;99.00;;;;;;5032682;28;20025;-38
2021/09/01 07:29:47;;;;;;;9.57;3.08;;;17.90;99.00;;;;;;5031987;28;20032;-38
2021/09/01 07:32:13;;;;;;;6.03;2.60;;;18.00;99.00;;;;;;5032101;28;20064;-39
2021/09/01 07:34:39;;;;;;;4.15;2.42;;;18.00;98.90;;;;;;5032392;28;20033;-38
2021/09/01 07:37:04;;;;;;;7.35;2.55;;;18.10;98.90;;;;;;5032185;28;20392;-39
2021/09/01 07:39:30;;;;;;;5.10;2.50;;;18.10;98.80;;;;;;5031641;28;20103;-39
2021/09/01 07:41:55;;;;;;;6.13;2.55;;;18.10;98.80;;;;;;5032622;28;20043;-36
2021/09/01 07:44:21;;;;;;;6.25;2.45;;;18.20;98.70;;;;;;5032590;28;20018;-37
2021/09/01 07:46:46;;;;;;;4.95;2.40;;;18.10;98.70;;;;;;5030252;28;20029;-43
2021/09/01 07:49:12;;;;;;;5.28;2.72;;;18.20;98.70;;;;;;5040005;28;20056;-41
2021/09/01 07:51:40;;;;;;;5.13;2.30;;;18.20;98.70;;;;;;5047936;28;20395;-42
2021/09/01 07:54:06;;;;;;;6.60;2.40;;;18.20;98.80;;;;;;5040383;28;20667;-40
2021/09/01 07:56:31;;;;;;;5.35;2.38;;;18.20;98.80;;;;;;5032922;28;20124;-42
2021/09/01 07:58:57;;;;;;;4.90;2.47;;;18.30;98.80;;;;;;5031361;28;20440;-37
2021/09/01 08:01:23;;;;;;;5.38;2.28;;;18.40;98.80;;;;;;5031344;28;20366;-43
2021/09/01 08:03:48;;;;;;;5.20;2.45;;;18.40;98.70;;;;;;5031954;28;20018;-42
2021/09/01 08:06:14;;;;;;;7.65;2.92;;;18.50;98.70;;;;;;5031555;28;20060;-39
2021/09/01 08:08:42;;;;;;;5.00;2.88;;;18.50;98.60;;;;;;5031722;28;20354;-40
2021/09/01 08:11:07;;;;;;;6.18;2.70;;;18.50;98.40;;;;;;5032075;28;20209;-38
2021/09/01 08:13:33;;;;;;;9.98;3.10;;;18.50;98.50;;;;;;5031500;28;20120;-38
2021/09/01 08:15:59;;;;;;;6.25;3.03;;;18.50;98.60;;;;;;5031330;28;20021;-41
2021/09/01 08:18:24;;;;;;;7.55;2.58;;;18.50;98.50;;;;;;5032476;28;20084;-41
2021/09/01 08:20:50;;;;;;;7.85;3.10;;;18.60;98.50;;;;;;5030560;28;20030;-41
2021/09/01 08:23:15;;;;;;;5.72;2.75;;;18.60;98.30;;;;;;5031959;28;20033;-40
2021/09/01 08:25:41;;;;;;;6.40;2.42;;;18.70;98.30;;;;;;5031279;28;20107;-41
2021/09/01 08:28:06;;;;;;;5.97;2.30;;;18.80;98.30;;;;;;5030915;28;20048;-39
2021/09/01 08:30:32;;;;;;;6.10;2.75;;;19.00;98.10;;;;;;5030761;28;20063;-37
2021/09/01 08:32:58;;;;;;;5.68;2.90;;;19.10;98.00;;;;;;5030225;28;20029;-39
2021/09/01 08:35:23;;;;;;;8.93;3.25;;;19.20;97.90;;;;;;5030986;28;20029;-38
2021/09/01 08:37:49;;;;;;;5.55;2.40;;;19.30;97.90;;;;;;5029758;28;20026;-41
2021/09/01 08:40:15;;;;;;;5.43;2.30;;;19.40;97.80;;;;;;5031922;28;20022;-42
2021/09/01 08:42:42;;;;;;;6.03;2.45;;;19.50;97.70;;;;;;5030983;28;20026;-41
2021/09/01 08:45:08;;;;;;;9.52;2.80;;;19.50;97.70;;;;;;5031680;28;20087;-41
2021/09/01 08:47:34;;;;;;;7.72;2.97;;;19.50;97.90;;;;;;5031771;28;20113;-38
2021/09/01 08:50:00;;;;;;;5.07;3.00;;;19.60;97.60;;;;;;5029764;28;20029;-40
2021/09/01 08:52:28;;;;;;;5.90;3.08;;;19.60;97.30;;;;;;5039551;28;20025;-38
2021/09/01 08:54:54;;;;;;;5.57;2.42;;;19.60;97.40;;;;;;5040880;28;20025;-39
2021/09/01 08:57:19;;;;;;;7.95;2.60;;;19.60;97.10;;;;;;5034626;28;20013;-38
2021/09/01 08:59:45;;;;;;;7.40;2.90;;;19.60;96.90;;;;;;5030932;28;20048;-40
2021/09/01 09:02:11;;;;;;;8.75;3.00;;;19.60;96.90;;;;;;5030714;28;20079;-39
2021/09/01 09:04:38;;;;;;;6.25;2.75;;;19.60;96.80;;;;;;5030602;28;20722;-39
2021/09/01 09:07:06;;;;;;;3.85;2.30;;;19.70;96.80;;;;;;5030628;28;20052;-41
2021/09/01 09:09:37;;;;;;;6.05;2.58;;;19.80;96.80;;;;;;5030244;28;20033;-41
2021/09/01 09:12:05;;;;;;;5.75;2.45;;;19.80;96.70;;;;;;5031313;28;20026;-35
2021/09/01 09:14:46;;;;;;;5.25;2.38;;;19.90;96.50;;;;;;5030669;28;20029;-36
2021/09/01 09:17:16;;;;;;;6.85;2.90;;;19.90;96.30;;;;;;5030388;28;20364;-39
2021/09/01 09:19:55;;;;;;;4.88;2.53;;;19.90;96.00;;;;;;5031095;28;20436;-38
2021/09/01 09:22:26;;;;;;;6.22;2.60;;;19.90;96.00;;;;;;5030944;28;20479;-40
2021/09/01 09:25:18;;;;;;;6.28;2.58;;;19.90;96.00;;;;;;5029581;28;20057;-39
2021/09/01 09:27:47;;;;;;;6.13;2.23;;;20.00;96.10;;;;;;5029942;28;20100;-38
2021/09/01 09:30:24;;;;;;;7.22;2.53;;;20.10;96.00;;;;;;5030706;28;20291;-37
2021/09/01 09:33:00;;;;;;;5.97;2.67;;;20.10;95.60;;;;;;5030817;28;20047;-36
2021/09/01 09:35:48;;;;;;;5.05;2.58;;;20.00;95.10;;;;;;5030753;28;20044;-37
2021/09/01 09:38:41;;;;;;;7.22;2.67;;;20.00;95.40;;;;;;5030518;28;20067;-38
2021/09/01 09:41:30;;;;;;;9.10;2.67;;;19.90;95.50;;;;;;5030944;28;20017;-40
2021/09/01 09:44:03;;;;;;;5.82;2.17;;;20.00;95.60;;;;;;5029680;28;20531;-35
2021/09/01 09:46:28;;;;;;;7.97;2.95;;;20.00;95.60;;;;;;5029673;28;20091;-38
2021/09/01 09:49:04;;;;;;;6.95;2.80;;;20.00;95.40;;;;;;5029763;28;20468;-42
2021/09/01 09:51:38;;;;;;;7.07;2.50;;;20.10;95.40;;;;;;5029948;28;20132;-41
2021/09/01 09:54:18;;;;;;;7.82;2.97;;;20.00;95.30;;;;;;5029549;28;20014;-41
2021/09/01 09:56:47;;;;;;;5.95;2.80;;;20.00;95.30;;;;;;5030186;28;20083;-36
2021/09/01 09:59:17;;;;;;;8.50;2.90;;;20.00;95.30;;;;;;5029622;28;20021;-38
2021/09/01 10:01:44;;;;;;;6.88;2.53;;;20.00;95.30;;;;;;5030355;28;20021;-39
2021/09/01 10:04:10;;;;;;;4.68;2.42;;;20.10;95.30;;;;;;5029665;28;20071;-36
2021/09/01 10:06:36;;;;;;;6.93;2.60;;;20.10;95.40;;;;;;5029580;28;20033;-39
2021/09/01 10:09:04;;;;;;;7.63;3.15;;;20.00;95.30;;;;;;5029673;28;20032;-37
2021/09/01 10:11:39;;;;;;;7.05;2.42;;;20.00;95.30;;;;;;4611313;27;15027467;-37
2021/09/01 10:14:06;;;;;;;5.88;2.35;;;19.90;95.40;;;;;;5123532;28;20080;-35
2021/09/01 10:16:36;;;;;;;9.30;2.78;;;19.90;95.60;;;;;;5117834;28;20528;-36
2021/09/01 10:19:04;;;;;;;7.50;2.60;;;19.80;95.60;;;;;;5126085;28;20020;-38
2021/09/01 10:21:32;;;;;;;7.00;2.60;;;19.80;95.70;;;;;;5115634;28;20359;-38
2021/09/01 10:24:33;;;;;;;6.03;2.78;;;19.90;95.60;;;;;;5124917;28;20028;-36
2021/09/01 10:27:28;;;;;;;6.03;2.40;;;19.90;95.80;;;;;;5117675;28;20420;-37
2021/09/01 10:30:08;;;;;;;5.05;2.80;;;20.10;95.70;;;;;;5120894;28;20043;-36
2021/09/01 10:32:47;;;;;;;6.47;2.53;;;20.10;95.30;;;;;;5117457;28;20019;-33
2021/09/01 10:35:12;;;;;;;8.57;2.95;;;20.10;95.40;;;;;;5112495;28;20335;-37
2021/09/01 10:37:38;;;;;;;9.63;3.15;;;20.20;95.40;;;;;;5120855;28;20524;-36
2021/09/01 10:40:26;;;;;;;4.68;2.60;;;20.30;95.30;;;;;;5122230;28;20176;-38
2021/09/01 10:42:55;;;;;;;8.57;2.90;;;20.40;95.20;;;;;;5068914;28;20117;-34
2021/09/01 10:45:42;;;;;;;6.28;3.00;;;20.50;95.20;;;;;;5111374;28;20015;-36
2021/09/01 10:48:09;;;;;;;5.30;3.15;;;20.50;95.00;;;;;;5091959;28;20028;-39
2021/09/01 10:50:41;;;;;;;7.00;2.72;;;20.50;95.10;;;;;;5112056;28;20035;-39
2021/09/01 10:53:20;;;;;;;6.88;3.17;;;20.50;95.00;;;;;;5111316;28;20220;-38
2021/09/01 10:55:55;;;;;;;4.90;2.50;;;20.50;95.00;;;;;;5110463;28;20027;-36
2021/09/01 10:58:24;;;;;;;3.65;2.47;;;20.50;95.10;;;;;;5112513;28;20020;-38
2021/09/01 11:00:58;;;;;;;8.70;3.10;;;20.50;95.10;;;;;;5109830;28;20015;-37
2021/09/01 11:03:41;;;;;;;8.10;3.38;;;20.40;95.20;;;;;;5112301;28;20061;-39
2021/09/01 11:06:15;;;;;;;6.68;3.20;;;20.30;95.20;;;;;;5110617;28;20024;-39
2021/09/01 11:08:59;;;;;;;8.73;3.30;;;20.30;95.20;;;;;;5120509;28;20024;-34
2021/09/01 11:11:53;;;;;;;9.05;3.40;;;20.30;95.00;;;;;;5118105;28;20043;-40
2021/09/01 11:14:40;;;;;;;10.57;4.00;;;20.30;95.00;;;;;;5124743;28;20107;-39
2021/09/01 11:17:25;;;;;;;5.47;3.25;;;20.20;95.00;;;;;;5123216;28;20470;-38
2021/09/01 11:19:58;;;;;;;6.80;3.20;;;20.20;95.10;;;;;;5119715;28;20538;-38
2021/09/01 11:22:29;;;;;;;7.05;3.35;;;20.20;95.10;;;;;;5112205;28;20027;-35
2021/09/01 11:25:05;;;;;;;7.28;3.30;;;20.30;95.00;;;;;;5107381;28;20048;-38
2021/09/01 11:27:34;;;;;;;7.78;3.00;;;20.40;95.00;;;;;;5106728;28;20058;-38
2021/09/01 11:30:03;;;;;;;6.63;2.70;;;20.50;94.90;;;;;;5090813;28;20062;-37
2021/09/01 11:32:32;;;;;;;5.25;2.75;;;20.60;94.70;;;;;;5099889;28;20031;-38
2021/09/01 11:35:01;;;;;;;4.47;2.35;;;20.70;94.50;;;;;;5092869;28;20020;-38
2021/09/01 11:37:27;;;;;;;8.38;2.80;;;20.80;94.20;;;;;;5093290;28;20027;-38
2021/09/01 11:39:53;;;;;;;6.72;2.72;;;20.80;93.80;;;;;;5091154;28;20360;-38
2021/09/01 11:42:19;;;;;;;4.63;2.60;;;20.90;93.80;;;;;;5099398;28;20065;-38
2021/09/01 11:44:55;;;;;;;6.78;2.85;;;20.90;93.80;;;;;;5104633;28;20153;-37
2021/09/01 11:47:21;;;;;;;6.47;3.65;;;21.00;93.70;;;;;;5106060;28;20403;-34
2021/09/01 11:49:49;;;;;;;7.95;3.15;;;20.90;93.60;;;;;;5103090;28;20459;-37
2021/09/01 11:52:15;;;;;;;4.47;2.72;;;20.80;93.70;;;;;;5109160;28;20035;-39
2021/09/01 11:54:41;;;;;;;7.28;3.05;;;20.80;93.70;;;;;;5101296;28;20035;-35
2021/09/01 11:57:08;;;;;;;9.55;3.08;;;20.80;93.80;;;;;;5109197;28;20039;-38
2021/09/01 11:59:35;;;;;;;6.82;2.65;;;20.70;93.40;;;;;;5102380;28;20024;-39
2021/09/01 12:02:02;;;;;;;5.85;2.40;;;20.60;93.60;;;;;;5090952;28;20083;-37
2021/09/01 12:04:32;;;;;;;5.15;2.95;;;20.50;93.80;;;;;;5103301;28;20016;-42
2021/09/01 12:06:58;;;;;;;7.70;2.97;;;20.50;93.90;;;;;;5091172;28;20023;-36
2021/09/01 12:09:25;;;;;;;5.95;2.55;;;20.40;93.90;;;;;;5104406;28;20360;-40
2021/09/01 12:11:54;;;;;;;5.80;2.78;;;20.40;94.00;;;;;;5091769;28;20047;-33
2021/09/01 12:14:24;;;;;;;6.57;2.65;;;20.40;94.00;;;;;;5103581;28;20550;-35
2021/09/01 12:16:53;;;;;;;8.95;3.00;;;20.40;94.10;;;;;;5090234;28;20027;-36
2021/09/01 12:19:20;;;;;;;7.57;2.80;;;20.50;93.80;;;;;;5103380;28;20028;-39
2021/09/01 12:21:46;;;;;;;6.32;3.00;;;20.40;93.70;;;;;;5106885;28;20031;-35
2021/09/01 12:24:37;;;;;;;6.47;2.63;;;20.40;93.90;;;;;;5110146;28;20024;-40
2021/09/01 12:27:03;;;;;;;7.15;2.72;;;20.40;94.10;;;;;;5080603;28;20032;-37
2021/09/01 12:29:31;;;;;;;8.50;2.63;;;20.50;94.10;;;;;;5101194;28;20034;-38
2021/09/01 12:32:04;;;;;;;7.28;2.58;;;20.60;94.00;;;;;;5107059;28;20028;-36
2021/09/01 12:34:34;;;;;;;5.07;2.50;;;20.70;93.80;;;;;;5105610;28;20097;-36
2021/09/01 12:37:01;;;;;;;5.20;2.40;;;20.90;93.80;;;;;;5095440;28;20024;-38
2021/09/01 12:39:27;;;;;;;5.00;2.70;;;21.00;93.50;;;;;;5103602;28;20019;-34
2021/09/01 12:41:53;;;;;;;5.38;2.78;;;21.10;93.50;;;;;;5104947;28;20427;-39
2021/09/01 12:44:19;;;;;;;5.22;2.50;;;21.20;93.40;;;;;;5105959;28;20534;-35
2021/09/01 12:46:44;;;;;;;4.40;2.50;;;21.30;93.40;;;;;;5103166;28;20036;-39
2021/09/01 12:49:26;;;;;;;3.78;2.45;;;21.30;93.30;;;;;;5107237;28;20026;-38
2021/09/01 12:52:00;;;;;;;4.65;2.20;;;21.30;93.30;;;;;;5102114;28;20515;-35
2021/09/01 12:54:26;;;;;;;5.95;2.60;;;21.30;93.40;;;;;;5108047;28;20426;-38